Francis Place, Louisiana
Current Conditions -  °F | °C
As of 11:53 PM on Friday 24 Oct 2014 (Local Time) from KNEW Reporting Station
Clear Clear  
Wind Chill: 68°   Ceiling: Unl
Heat Index: 68°   Visibility: 10mi
Dew Point: 53°   Wind: 12mph
Humidity: 59%   Direction: 360°N
Pressure: 30.1"   Gusts: NA
Location:  29.9486°N, 89.8975°W
Report Text: KNEW 250453Z AUTO 36010KT 10SM CLR 20/12 A3010 RMK AO2 SLP186 T02000117 TSNO
Loading
Personal Weather Stations






























Interactive Weather Map
Tropical Storm Tracking
New forecast layout! Learn more

10-Day Weather Forecast

Advertisements
Track Severe Weather on mobile